sensor_id;sensor_type;location;lat;lon;timestamp;temperature;humidity
28069;DHT22;15382;47.578;8.086;2022-12-29T00:00:22;3.60;99.90
28069;DHT22;15382;47.578;8.086;2022-12-29T00:10:23;3.70;99.90
28069;DHT22;15382;47.578;8.086;2022-12-29T00:20:24;3.80;99.90
28069;DHT22;15382;47.578;8.086;2022-12-29T00:30:43;3.90;99.90
28069;DHT22;15382;47.578;8.086;2022-12-29T00:41:03;4.00;99.90
28069;DHT22;15382;47.578;8.086;2022-12-29T00:51:23;4.00;99.90
28069;DHT22;15382;47.578;8.086;2022-12-29T01:01:24;4.20;99.90
28069;DHT22;15382;47.578;8.086;2022-12-29T01:11:24;4.20;99.90
28069;DHT22;15382;47.578;8.086;2022-12-29T01:21:25;4.20;99.90
28069;DHT22;15382;47.578;8.086;2022-12-29T01:31:26;4.30;99.90
28069;DHT22;15382;47.578;8.086;2022-12-29T01:41:28;4.20;99.90
28069;DHT22;15382;47.578;8.086;2022-12-29T01:51:31;4.10;99.90
28069;DHT22;15382;47.578;8.086;2022-12-29T02:01:34;4.10;99.90
28069;DHT22;15382;47.578;8.086;2022-12-29T02:11:36;4.10;99.90
28069;DHT22;15382;47.578;8.086;2022-12-29T02:42:36;4.20;99.90
28069;DHT22;15382;47.578;8.086;2022-12-29T02:52:47;4.30;99.90
28069;DHT22;15382;47.578;8.086;2022-12-29T03:23:53;4.40;99.90
28069;DHT22;15382;47.578;8.086;2022-12-29T03:33:58;4.40;99.90
28069;DHT22;15382;47.578;8.086;2022-12-29T03:43:59;4.40;99.90
28069;DHT22;15382;47.578;8.086;2022-12-29T03:54:02;4.50;99.90
28069;DHT22;15382;47.578;8.086;2022-12-29T04:04:04;4.40;99.90
28069;DHT22;15382;47.578;8.086;2022-12-29T04:14:05;4.40;99.90
28069;DHT22;15382;47.578;8.086;2022-12-29T04:24:08;4.60;99.90
28069;DHT22;15382;47.578;8.086;2022-12-29T04:34:13;4.80;99.90
28069;DHT22;15382;47.578;8.086;2022-12-29T04:44:15;5.10;99.90
28069;DHT22;15382;47.578;8.086;2022-12-29T04:54:39;5.00;99.90
28069;DHT22;15382;47.578;8.086;2022-12-29T05:04:50;4.70;99.90
28069;DHT22;15382;47.578;8.086;2022-12-29T05:14:52;4.70;99.90
28069;DHT22;15382;47.578;8.086;2022-12-29T05:24:54;4.90;99.90
28069;DHT22;15382;47.578;8.086;2022-12-29T05:34:56;4.90;99.90
28069;DHT22;15382;47.578;8.086;2022-12-29T05:44:58;4.80;99.90
28069;DHT22;15382;47.578;8.086;2022-12-29T05:55:20;4.60;99.90
28069;DHT22;15382;47.578;8.086;2022-12-29T06:05:23;4.70;99.90
28069;DHT22;15382;47.578;8.086;2022-12-29T06:15:24;5.00;99.90
28069;DHT22;15382;47.578;8.086;2022-12-29T06:25:28;5.00;99.90
28069;DHT22;15382;47.578;8.086;2022-12-29T06:35:31;5.20;99.90
28069;DHT22;15382;47.578;8.086;2022-12-29T06:45:34;5.60;99.90
28069;DHT22;15382;47.578;8.086;2022-12-29T06:55:35;5.90;99.90
28069;DHT22;15382;47.578;8.086;2022-12-29T07:05:35;6.30;99.90
28069;DHT22;15382;47.578;8.086;2022-12-29T07:15:37;7.30;99.90
28069;DHT22;15382;47.578;8.086;2022-12-29T07:25:40;7.60;99.90
28069;DHT22;15382;47.578;8.086;2022-12-29T07:35:42;7.90;99.90
28069;DHT22;15382;47.578;8.086;2022-12-29T07:45:44;8.70;99.90
28069;DHT22;15382;47.578;8.086;2022-12-29T07:55:45;8.70;99.90
28069;DHT22;15382;47.578;8.086;2022-12-29T08:05:46;9.10;99.90
28069;DHT22;15382;47.578;8.086;2022-12-29T08:15:47;10.00;99.90
28069;DHT22;15382;47.578;8.086;2022-12-29T08:25:57;10.80;99.90
28069;DHT22;15382;47.578;8.086;2022-12-29T08:36:00;11.00;99.90
28069;DHT22;15382;47.578;8.086;2022-12-29T08:46:01;11.90;99.90
28069;DHT22;15382;47.578;8.086;2022-12-29T08:56:02;13.10;99.90
28069;DHT22;15382;47.578;8.086;2022-12-29T09:06:06;13.60;99.90
28069;DHT22;15382;47.578;8.086;2022-12-29T09:16:07;12.80;99.90
28069;DHT22;15382;47.578;8.086;2022-12-29T09:26:09;12.60;99.90
28069;DHT22;15382;47.578;8.086;2022-12-29T09:36:10;12.60;99.90
28069;DHT22;15382;47.578;8.086;2022-12-29T09:46:32;12.60;99.90
28069;DHT22;15382;47.578;8.086;2022-12-29T09:56:36;12.50;99.90
28069;DHT22;15382;47.578;8.086;2022-12-29T10:06:54;12.70;99.90
28069;DHT22;15382;47.578;8.086;2022-12-29T10:17:01;12.60;99.90
28069;DHT22;15382;47.578;8.086;2022-12-29T10:27:03;12.70;99.90
28069;DHT22;15382;47.578;8.086;2022-12-29T10:47:42;12.70;99.90
28069;DHT22;15382;47.578;8.086;2022-12-29T10:57:50;12.80;99.90
28069;DHT22;15382;47.578;8.086;2022-12-29T11:07:53;13.00;99.90
28069;DHT22;15382;47.578;8.086;2022-12-29T11:17:57;13.10;99.90
28069;DHT22;15382;47.578;8.086;2022-12-29T11:28:22;13.00;99.90
28069;DHT22;15382;47.578;8.086;2022-12-29T11:38:34;13.00;99.90
28069;DHT22;15382;47.578;8.086;2022-12-29T11:48:40;12.90;99.90
28069;DHT22;15382;47.578;8.086;2022-12-29T11:58:42;12.80;99.90
28069;DHT22;15382;47.578;8.086;2022-12-29T12:08:56;12.70;99.90
28069;DHT22;15382;47.578;8.086;2022-12-29T12:19:09;12.90;99.90
28069;DHT22;15382;47.578;8.086;2022-12-29T12:29:17;13.00;99.90
28069;DHT22;15382;47.578;8.086;2022-12-29T12:39:26;13.00;99.90
28069;DHT22;15382;47.578;8.086;2022-12-29T13:00:16;12.90;99.90
28069;DHT22;15382;47.578;8.086;2022-12-29T13:10:50;12.90;99.90
28069;DHT22;15382;47.578;8.086;2022-12-29T13:31:46;13.10;99.90
28069;DHT22;15382;47.578;8.086;2022-12-29T13:41:53;13.10;99.90
28069;DHT22;15382;47.578;8.086;2022-12-29T13:51:57;12.90;99.90
28069;DHT22;15382;47.578;8.086;2022-12-29T14:02:03;13.00;99.90
28069;DHT22;15382;47.578;8.086;2022-12-29T14:12:38;12.90;99.90
28069;DHT22;15382;47.578;8.086;2022-12-29T14:22:56;12.90;99.90
28069;DHT22;15382;47.578;8.086;2022-12-29T14:33:10;12.80;99.90
28069;DHT22;15382;47.578;8.086;2022-12-29T14:43:24;12.80;99.90
28069;DHT22;15382;47.578;8.086;2022-12-29T14:53:48;12.60;99.90
28069;DHT22;15382;47.578;8.086;2022-12-29T15:03:51;12.60;99.90
28069;DHT22;15382;47.578;8.086;2022-12-29T15:13:54;12.30;99.90
28069;DHT22;15382;47.578;8.086;2022-12-29T15:23:54;12.10;99.90
28069;DHT22;15382;47.578;8.086;2022-12-29T15:34:12;11.80;99.90
28069;DHT22;15382;47.578;8.086;2022-12-29T15:44:21;11.50;99.90
28069;DHT22;15382;47.578;8.086;2022-12-29T15:54:27;11.20;99.90
28069;DHT22;15382;47.578;8.086;2022-12-29T16:04:32;11.30;99.90
28069;DHT22;15382;47.578;8.086;2022-12-29T16:15:03;10.90;99.90
28069;DHT22;15382;47.578;8.086;2022-12-29T16:35:23;10.50;99.90
28069;DHT22;15382;47.578;8.086;2022-12-29T16:55:49;10.40;99.90
28069;DHT22;15382;47.578;8.086;2022-12-29T17:05:50;10.40;99.90
28069;DHT22;15382;47.578;8.086;2022-12-29T17:15:53;10.40;99.90
28069;DHT22;15382;47.578;8.086;2022-12-29T17:25:54;10.20;99.90
28069;DHT22;15382;47.578;8.086;2022-12-29T17:35:57;10.20;99.90
28069;DHT22;15382;47.578;8.086;2022-12-29T17:45:58;10.00;99.90
28069;DHT22;15382;47.578;8.086;2022-12-29T17:56:04;9.90;99.90
28069;DHT22;15382;47.578;8.086;2022-12-29T18:06:06;9.70;99.90
28069;DHT22;15382;47.578;8.086;2022-12-29T18:16:10;9.70;99.90
28069;DHT22;15382;47.578;8.086;2022-12-29T18:26:26;10.00;99.90
28069;DHT22;15382;47.578;8.086;2022-12-29T18:36:30;10.00;99.90
28069;DHT22;15382;47.578;8.086;2022-12-29T18:46:31;9.90;99.90
28069;DHT22;15382;47.578;8.086;2022-12-29T18:56:31;9.70;99.90
28069;DHT22;15382;47.578;8.086;2022-12-29T19:06:32;9.50;99.90
28069;DHT22;15382;47.578;8.086;2022-12-29T19:16:33;9.30;99.90
28069;DHT22;15382;47.578;8.086;2022-12-29T19:26:36;9.10;99.90
28069;DHT22;15382;47.578;8.086;2022-12-29T19:36:37;9.10;99.90
28069;DHT22;15382;47.578;8.086;2022-12-29T19:46:38;8.80;99.90
28069;DHT22;15382;47.578;8.086;2022-12-29T19:56:40;8.90;99.90
28069;DHT22;15382;47.578;8.086;2022-12-29T20:06:43;8.90;99.90
28069;DHT22;15382;47.578;8.086;2022-12-29T20:16:45;8.60;99.90
28069;DHT22;15382;47.578;8.086;2022-12-29T20:26:46;8.60;99.90
28069;DHT22;15382;47.578;8.086;2022-12-29T20:36:50;8.60;99.90
28069;DHT22;15382;47.578;8.086;2022-12-29T20:46:52;8.70;99.90
28069;DHT22;15382;47.578;8.086;2022-12-29T20:56:54;8.70;99.90
28069;DHT22;15382;47.578;8.086;2022-12-29T21:06:55;8.60;99.90
28069;DHT22;15382;47.578;8.086;2022-12-29T21:16:58;8.60;99.90
28069;DHT22;15382;47.578;8.086;2022-12-29T21:26:58;8.50;99.90
28069;DHT22;15382;47.578;8.086;2022-12-29T21:36:59;8.40;99.90
28069;DHT22;15382;47.578;8.086;2022-12-29T21:47:00;8.30;99.90
28069;DHT22;15382;47.578;8.086;2022-12-29T21:57:02;8.30;99.90
28069;DHT22;15382;47.578;8.086;2022-12-29T22:07:03;8.20;99.90
28069;DHT22;15382;47.578;8.086;2022-12-29T22:17:22;8.20;99.90
28069;DHT22;15382;47.578;8.086;2022-12-29T22:27:23;7.90;99.90
28069;DHT22;15382;47.578;8.086;2022-12-29T22:37:24;7.90;99.90
28069;DHT22;15382;47.578;8.086;2022-12-29T22:47:26;7.70;99.90
28069;DHT22;15382;47.578;8.086;2022-12-29T22:57:29;7.60;99.90
28069;DHT22;15382;47.578;8.086;2022-12-29T23:07:32;7.50;99.90
28069;DHT22;15382;47.578;8.086;2022-12-29T23:17:34;7.40;99.90
28069;DHT22;15382;47.578;8.086;2022-12-29T23:27:35;7.30;99.90
28069;DHT22;15382;47.578;8.086;2022-12-29T23:37:36;7.30;99.90
28069;DHT22;15382;47.578;8.086;2022-12-29T23:47:37;7.20;99.90
28069;DHT22;15382;47.578;8.086;2022-12-29T23:57:38;7.10;99.90
